sensor_id;sensor_type;location;lat;lon;timestamp;pressure;altitude;pressure_sealevel;temperature;humidity
62436;BME280;48480;50.252;18.848;2023-02-16T00:01:44;99609.65;;;1.41;73.22
62436;BME280;48480;50.252;18.848;2023-02-16T00:04:37;99612.60;;;1.40;73.29
62436;BME280;48480;50.252;18.848;2023-02-16T00:07:02;99594.25;;;1.30;73.43
62436;BME280;48480;50.252;18.848;2023-02-16T00:09:27;99599.76;;;1.34;73.50
62436;BME280;48480;50.252;18.848;2023-02-16T00:11:53;99598.79;;;1.34;73.51
62436;BME280;48480;50.252;18.848;2023-02-16T00:14:38;99597.24;;;1.33;73.45
62436;BME280;48480;50.252;18.848;2023-02-16T00:17:04;99600.25;;;1.31;73.63
62436;BME280;48480;50.252;18.848;2023-02-16T00:19:37;99590.51;;;1.30;73.44
62436;BME280;48480;50.252;18.848;2023-02-16T00:22:05;99591.16;;;1.27;73.65
62436;BME280;48480;50.252;18.848;2023-02-16T00:24:31;99589.95;;;1.26;73.69
62436;BME280;48480;50.252;18.848;2023-02-16T00:26:58;99592.08;;;1.25;73.76
62436;BME280;48480;50.252;18.848;2023-02-16T00:31:53;99592.65;;;1.25;73.94
62436;BME280;48480;50.252;18.848;2023-02-16T00:36:58;99595.52;;;1.23;73.68
62436;BME280;48480;50.252;18.848;2023-02-16T00:39:25;99599.13;;;1.22;73.71
62436;BME280;48480;50.252;18.848;2023-02-16T00:41:52;99591.08;;;1.21;73.78
62436;BME280;48480;50.252;18.848;2023-02-16T00:44:42;99588.80;;;1.21;73.79
62436;BME280;48480;50.252;18.848;2023-02-16T00:49:47;99575.73;;;1.16;73.96
62436;BME280;48480;50.252;18.848;2023-02-16T00:54:54;99575.87;;;1.15;74.07
62436;BME280;48480;50.252;18.848;2023-02-16T00:57:21;99573.06;;;1.15;73.99
62436;BME280;48480;50.252;18.848;2023-02-16T00:59:50;99571.70;;;1.14;74.22
62436;BME280;48480;50.252;18.848;2023-02-16T01:02:20;99569.30;;;1.11;74.29
62436;BME280;48480;50.252;18.848;2023-02-16T01:04:45;99563.18;;;1.10;74.36
62436;BME280;48480;50.252;18.848;2023-02-16T01:07:12;99563.50;;;1.11;74.37
62436;BME280;48480;50.252;18.848;2023-02-16T01:09:56;99554.88;;;1.08;74.20
62436;BME280;48480;50.252;18.848;2023-02-16T01:12:54;99556.80;;;1.10;74.21
62436;BME280;48480;50.252;18.848;2023-02-16T01:15:23;99553.42;;;1.10;74.35
62436;BME280;48480;50.252;18.848;2023-02-16T01:17:49;99549.33;;;1.10;74.27
62436;BME280;48480;50.252;18.848;2023-02-16T01:20:18;99543.38;;;1.08;74.16
62436;BME280;48480;50.252;18.848;2023-02-16T01:22:44;99546.98;;;1.06;74.40
62436;BME280;48480;50.252;18.848;2023-02-16T01:25:10;99548.39;;;1.05;74.41
62436;BME280;48480;50.252;18.848;2023-02-16T01:27:37;99545.02;;;1.04;74.47
62436;BME280;48480;50.252;18.848;2023-02-16T01:30:11;99551.68;;;1.04;74.33
62436;BME280;48480;50.252;18.848;2023-02-16T01:32:38;99547.87;;;1.04;74.55
62436;BME280;48480;50.252;18.848;2023-02-16T01:35:03;99545.48;;;1.03;74.64
62436;BME280;48480;50.252;18.848;2023-02-16T01:37:29;99548.60;;;1.01;74.82
62436;BME280;48480;50.252;18.848;2023-02-16T01:39:55;99551.27;;;1.00;74.88
62436;BME280;48480;50.252;18.848;2023-02-16T01:42:34;99554.20;;;0.99;75.05
62436;BME280;48480;50.252;18.848;2023-02-16T01:45:08;99550.27;;;0.98;75.15
62436;BME280;48480;50.252;18.848;2023-02-16T01:47:53;99547.09;;;0.95;75.43
62436;BME280;48480;50.252;18.848;2023-02-16T01:50:22;99540.42;;;0.93;75.62
62436;BME280;48480;50.252;18.848;2023-02-16T01:53:17;99537.31;;;0.91;75.78
62436;BME280;48480;50.252;18.848;2023-02-16T01:55:58;99535.86;;;0.86;76.17
62436;BME280;48480;50.252;18.848;2023-02-16T01:58:44;99533.13;;;0.83;76.47
62436;BME280;48480;50.252;18.848;2023-02-16T02:01:43;99525.60;;;0.78;76.69
62436;BME280;48480;50.252;18.848;2023-02-16T02:04:12;99534.44;;;0.80;76.71
62436;BME280;48480;50.252;18.848;2023-02-16T02:06:58;99536.74;;;0.80;76.79
62436;BME280;48480;50.252;18.848;2023-02-16T02:09:42;99538.35;;;0.78;76.95
62436;BME280;48480;50.252;18.848;2023-02-16T02:14:58;99533.95;;;0.76;77.01
62436;BME280;48480;50.252;18.848;2023-02-16T02:17:24;99527.63;;;0.74;77.15
62436;BME280;48480;50.252;18.848;2023-02-16T02:20:03;99528.50;;;0.73;77.12
62436;BME280;48480;50.252;18.848;2023-02-16T02:26:30;99529.81;;;0.71;77.07
62436;BME280;48480;50.252;18.848;2023-02-16T02:29:24;99530.89;;;0.68;77.31
62436;BME280;48480;50.252;18.848;2023-02-16T02:34:57;99526.41;;;0.68;77.30
62436;BME280;48480;50.252;18.848;2023-02-16T02:40:18;99527.83;;;0.69;77.31
62436;BME280;48480;50.252;18.848;2023-02-16T02:42:55;99525.56;;;0.68;77.17
62436;BME280;48480;50.252;18.848;2023-02-16T02:45:26;99521.82;;;0.68;77.20
62436;BME280;48480;50.252;18.848;2023-02-16T02:47:53;99513.23;;;0.63;77.08
62436;BME280;48480;50.252;18.848;2023-02-16T02:53:28;99521.48;;;0.67;76.97
62436;BME280;48480;50.252;18.848;2023-02-16T02:56:02;99527.52;;;0.68;76.95
62436;BME280;48480;50.252;18.848;2023-02-16T02:58:58;99527.95;;;0.69;76.95
62436;BME280;48480;50.252;18.848;2023-02-16T03:01:49;99537.96;;;0.68;76.98
62436;BME280;48480;50.252;18.848;2023-02-16T03:04:18;99535.14;;;0.69;76.98
62436;BME280;48480;50.252;18.848;2023-02-16T03:06:47;99529.70;;;0.71;77.18
62436;BME280;48480;50.252;18.848;2023-02-16T03:09:15;99530.70;;;0.72;77.23
62436;BME280;48480;50.252;18.848;2023-02-16T03:11:41;99534.60;;;0.70;77.30
62436;BME280;48480;50.252;18.848;2023-02-16T03:14:32;99537.84;;;0.67;77.39
62436;BME280;48480;50.252;18.848;2023-02-16T03:17:02;99538.73;;;0.65;77.53
62436;BME280;48480;50.252;18.848;2023-02-16T03:19:50;99534.44;;;0.60;77.78
62436;BME280;48480;50.252;18.848;2023-02-16T03:22:36;99530.66;;;0.58;77.87
62436;BME280;48480;50.252;18.848;2023-02-16T03:25:23;99530.33;;;0.58;78.07
62436;BME280;48480;50.252;18.848;2023-02-16T03:28:10;99529.73;;;0.57;77.93
62436;BME280;48480;50.252;18.848;2023-02-16T03:30:57;99530.90;;;0.56;77.99
62436;BME280;48480;50.252;18.848;2023-02-16T03:33:26;99535.53;;;0.55;78.40
62436;BME280;48480;50.252;18.848;2023-02-16T03:35:53;99531.47;;;0.55;78.25
62436;BME280;48480;50.252;18.848;2023-02-16T03:38:19;99527.45;;;0.54;78.29
62436;BME280;48480;50.252;18.848;2023-02-16T03:40:48;99520.98;;;0.52;78.34
62436;BME280;48480;50.252;18.848;2023-02-16T03:43:14;99517.61;;;0.53;78.39
62436;BME280;48480;50.252;18.848;2023-02-16T03:45:41;99515.11;;;0.52;78.51
62436;BME280;48480;50.252;18.848;2023-02-16T03:48:09;99514.58;;;0.50;78.48
62436;BME280;48480;50.252;18.848;2023-02-16T03:50:35;99513.97;;;0.51;78.45
62436;BME280;48480;50.252;18.848;2023-02-16T03:53:01;99512.84;;;0.50;78.50
62436;BME280;48480;50.252;18.848;2023-02-16T03:55:39;99512.65;;;0.49;78.71
62436;BME280;48480;50.252;18.848;2023-02-16T03:58:07;99509.32;;;0.49;78.63
62436;BME280;48480;50.252;18.848;2023-02-16T04:00:34;99505.10;;;0.49;78.85
62436;BME280;48480;50.252;18.848;2023-02-16T04:03:01;99503.77;;;0.48;78.86
62436;BME280;48480;50.252;18.848;2023-02-16T04:05:27;99502.25;;;0.47;78.64
62436;BME280;48480;50.252;18.848;2023-02-16T04:07:53;99503.29;;;0.45;78.75
62436;BME280;48480;50.252;18.848;2023-02-16T04:10:18;99498.84;;;0.40;78.78
62436;BME280;48480;50.252;18.848;2023-02-16T04:12:44;99503.56;;;0.39;79.11
62436;BME280;48480;50.252;18.848;2023-02-16T04:15:15;99504.30;;;0.38;79.08
62436;BME280;48480;50.252;18.848;2023-02-16T04:17:41;99499.90;;;0.40;78.77
62436;BME280;48480;50.252;18.848;2023-02-16T04:20:11;99497.37;;;0.40;78.94
62436;BME280;48480;50.252;18.848;2023-02-16T04:22:38;99486.70;;;0.40;79.22
62436;BME280;48480;50.252;18.848;2023-02-16T04:25:03;99491.64;;;0.40;78.94
62436;BME280;48480;50.252;18.848;2023-02-16T04:27:30;99495.94;;;0.38;78.97
62436;BME280;48480;50.252;18.848;2023-02-16T04:29:55;99497.48;;;0.38;79.11
62436;BME280;48480;50.252;18.848;2023-02-16T04:32:21;99494.04;;;0.40;79.17
62436;BME280;48480;50.252;18.848;2023-02-16T04:34:46;99495.15;;;0.40;79.30
62436;BME280;48480;50.252;18.848;2023-02-16T04:37:12;99491.52;;;0.41;79.18
62436;BME280;48480;50.252;18.848;2023-02-16T04:39:37;99487.22;;;0.41;79.21
62436;BME280;48480;50.252;18.848;2023-02-16T04:42:03;99484.34;;;0.43;78.93
62436;BME280;48480;50.252;18.848;2023-02-16T04:44:29;99480.50;;;0.43;78.91
62436;BME280;48480;50.252;18.848;2023-02-16T04:46:55;99483.84;;;0.42;79.17
62436;BME280;48480;50.252;18.848;2023-02-16T04:49:21;99483.77;;;0.39;79.25
62436;BME280;48480;50.252;18.848;2023-02-16T04:51:47;99480.31;;;0.40;79.12
62436;BME280;48480;50.252;18.848;2023-02-16T04:54:12;99481.79;;;0.40;79.20
62436;BME280;48480;50.252;18.848;2023-02-16T04:56:38;99482.11;;;0.36;79.11
62436;BME280;48480;50.252;18.848;2023-02-16T04:59:03;99484.01;;;0.42;79.07
62436;BME280;48480;50.252;18.848;2023-02-16T05:01:29;99485.58;;;0.42;79.08
62436;BME280;48480;50.252;18.848;2023-02-16T05:03:55;99485.07;;;0.40;79.20
62436;BME280;48480;50.252;18.848;2023-02-16T05:06:20;99485.92;;;0.40;79.18
62436;BME280;48480;50.252;18.848;2023-02-16T05:08:46;99482.67;;;0.40;79.19
62436;BME280;48480;50.252;18.848;2023-02-16T05:11:12;99480.84;;;0.40;79.27
62436;BME280;48480;50.252;18.848;2023-02-16T05:13:56;99480.39;;;0.41;79.17
62436;BME280;48480;50.252;18.848;2023-02-16T05:16:41;99478.48;;;0.41;79.16
62436;BME280;48480;50.252;18.848;2023-02-16T05:19:07;99471.10;;;0.41;79.35
62436;BME280;48480;50.252;18.848;2023-02-16T05:21:33;99474.70;;;0.42;79.28
62436;BME280;48480;50.252;18.848;2023-02-16T05:24:02;99479.75;;;0.41;79.39
62436;BME280;48480;50.252;18.848;2023-02-16T05:26:28;99467.95;;;0.36;79.47
62436;BME280;48480;50.252;18.848;2023-02-16T05:28:54;99469.98;;;0.43;79.48
62436;BME280;48480;50.252;18.848;2023-02-16T05:31:22;99470.39;;;0.42;79.33
62436;BME280;48480;50.252;18.848;2023-02-16T05:33:48;99472.92;;;0.42;79.39
62436;BME280;48480;50.252;18.848;2023-02-16T05:36:14;99473.89;;;0.41;79.46
62436;BME280;48480;50.252;18.848;2023-02-16T05:38:40;99476.45;;;0.42;79.57
62436;BME280;48480;50.252;18.848;2023-02-16T05:41:06;99474.06;;;0.43;79.63
62436;BME280;48480;50.252;18.848;2023-02-16T05:43:31;99473.29;;;0.44;79.47
62436;BME280;48480;50.252;18.848;2023-02-16T05:45:57;99480.42;;;0.44;79.56
62436;BME280;48480;50.252;18.848;2023-02-16T05:48:22;99482.37;;;0.42;79.75
62436;BME280;48480;50.252;18.848;2023-02-16T05:50:49;99484.02;;;0.43;79.75
62436;BME280;48480;50.252;18.848;2023-02-16T05:53:22;99483.53;;;0.44;79.78
62436;BME280;48480;50.252;18.848;2023-02-16T05:55:50;99486.00;;;0.44;79.84
62436;BME280;48480;50.252;18.848;2023-02-16T05:58:17;99488.20;;;0.43;79.85
62436;BME280;48480;50.252;18.848;2023-02-16T06:00:45;99497.98;;;0.44;79.99
62436;BME280;48480;50.252;18.848;2023-02-16T06:03:13;99503.23;;;0.43;80.12
62436;BME280;48480;50.252;18.848;2023-02-16T06:05:41;99510.70;;;0.43;80.27
62436;BME280;48480;50.252;18.848;2023-02-16T06:08:07;99509.86;;;0.45;80.32
62436;BME280;48480;50.252;18.848;2023-02-16T06:10:33;99510.25;;;0.46;80.43
62436;BME280;48480;50.252;18.848;2023-02-16T06:13:00;99511.58;;;0.47;80.38
62436;BME280;48480;50.252;18.848;2023-02-16T06:15:30;99516.80;;;0.48;80.63
62436;BME280;48480;50.252;18.848;2023-02-16T06:20:45;99515.29;;;0.53;80.72
62436;BME280;48480;50.252;18.848;2023-02-16T06:23:13;99512.41;;;0.55;80.64
62436;BME280;48480;50.252;18.848;2023-02-16T06:25:54;99512.27;;;0.58;80.72
62436;BME280;48480;50.252;18.848;2023-02-16T06:28:21;99510.00;;;0.59;80.85
62436;BME280;48480;50.252;18.848;2023-02-16T06:30:50;99512.38;;;0.58;81.05
62436;BME280;48480;50.252;18.848;2023-02-16T06:33:17;99517.42;;;0.60;80.98
62436;BME280;48480;50.252;18.848;2023-02-16T06:35:44;99515.55;;;0.61;81.10
62436;BME280;48480;50.252;18.848;2023-02-16T06:38:11;99511.86;;;0.63;81.12
62436;BME280;48480;50.252;18.848;2023-02-16T06:43:29;99510.61;;;0.72;81.28
62436;BME280;48480;50.252;18.848;2023-02-16T06:48:48;99514.90;;;0.85;81.31
62436;BME280;48480;50.252;18.848;2023-02-16T06:54:07;99515.85;;;1.00;81.06
62436;BME280;48480;50.252;18.848;2023-02-16T06:56:35;99514.33;;;1.04;81.04
62436;BME280;48480;50.252;18.848;2023-02-16T06:59:22;99500.19;;;1.03;80.92
62436;BME280;48480;50.252;18.848;2023-02-16T07:01:51;99509.52;;;1.15;80.82
62436;BME280;48480;50.252;18.848;2023-02-16T07:04:20;99514.61;;;1.20;80.75
62436;BME280;48480;50.252;18.848;2023-02-16T07:06:52;99515.16;;;1.24;80.63
62436;BME280;48480;50.252;18.848;2023-02-16T07:09:22;99520.64;;;1.29;80.71
62436;BME280;48480;50.252;18.848;2023-02-16T07:11:49;99523.32;;;1.37;80.87
62436;BME280;48480;50.252;18.848;2023-02-16T07:14:15;99515.02;;;1.37;80.65
62436;BME280;48480;50.252;18.848;2023-02-16T07:16:41;99525.83;;;1.50;80.48
62436;BME280;48480;50.252;18.848;2023-02-16T07:19:07;99515.59;;;1.50;80.43
62436;BME280;48480;50.252;18.848;2023-02-16T07:21:33;99520.61;;;1.61;80.46
62436;BME280;48480;50.252;18.848;2023-02-16T07:23:59;99513.92;;;1.64;80.51
62436;BME280;48480;50.252;18.848;2023-02-16T07:26:25;99516.59;;;1.69;80.19
62436;BME280;48480;50.252;18.848;2023-02-16T07:28:50;99520.20;;;1.75;80.23
62436;BME280;48480;50.252;18.848;2023-02-16T07:31:17;99519.86;;;1.79;80.16
62436;BME280;48480;50.252;18.848;2023-02-16T07:33:43;99518.62;;;1.83;79.99
62436;BME280;48480;50.252;18.848;2023-02-16T07:36:10;99515.13;;;1.87;80.07
62436;BME280;48480;50.252;18.848;2023-02-16T07:38:38;99516.16;;;1.93;80.00
62436;BME280;48480;50.252;18.848;2023-02-16T07:41:08;99515.95;;;2.02;80.11
62436;BME280;48480;50.252;18.848;2023-02-16T07:43:34;99515.59;;;2.12;79.99
62436;BME280;48480;50.252;18.848;2023-02-16T07:46:00;99508.85;;;2.19;79.64
62436;BME280;48480;50.252;18.848;2023-02-16T07:48:26;99516.07;;;2.33;79.29
62436;BME280;48480;50.252;18.848;2023-02-16T07:50:52;99510.95;;;2.43;79.07
62436;BME280;48480;50.252;18.848;2023-02-16T07:53:18;99507.62;;;2.52;78.67
62436;BME280;48480;50.252;18.848;2023-02-16T07:55:44;99511.89;;;2.62;78.47
62436;BME280;48480;50.252;18.848;2023-02-16T07:58:12;99505.38;;;2.80;78.38
62436;BME280;48480;50.252;18.848;2023-02-16T08:00:54;99503.91;;;3.09;77.92
62436;BME280;48480;50.252;18.848;2023-02-16T08:03:22;99501.39;;;3.42;76.86
62436;BME280;48480;50.252;18.848;2023-02-16T08:05:50;99486.27;;;3.73;76.03
62436;BME280;48480;50.252;18.848;2023-02-16T08:08:16;99493.59;;;4.09;74.78
62436;BME280;48480;50.252;18.848;2023-02-16T08:10:42;99499.59;;;4.32;74.10
62436;BME280;48480;50.252;18.848;2023-02-16T08:13:07;99499.31;;;4.66;73.31
62436;BME280;48480;50.252;18.848;2023-02-16T08:15:33;99496.06;;;4.97;71.97
62436;BME280;48480;50.252;18.848;2023-02-16T08:17:59;99494.06;;;5.20;70.86
62436;BME280;48480;50.252;18.848;2023-02-16T08:20:24;99495.23;;;5.41;70.08
62436;BME280;48480;50.252;18.848;2023-02-16T08:22:53;99495.20;;;5.60;69.51
62436;BME280;48480;50.252;18.848;2023-02-16T08:25:19;99493.79;;;5.73;69.23
62436;BME280;48480;50.252;18.848;2023-02-16T08:27:44;99490.80;;;5.91;68.23
62436;BME280;48480;50.252;18.848;2023-02-16T08:32:47;99489.39;;;6.17;66.42
62436;BME280;48480;50.252;18.848;2023-02-16T08:35:17;99498.83;;;6.31;65.96
62436;BME280;48480;50.252;18.848;2023-02-16T08:38:12;99504.79;;;6.47;65.20
62436;BME280;48480;50.252;18.848;2023-02-16T08:40:38;99503.00;;;6.56;64.54
62436;BME280;48480;50.252;18.848;2023-02-16T08:43:04;99496.73;;;6.67;64.37
62436;BME280;48480;50.252;18.848;2023-02-16T08:45:31;99492.71;;;6.86;64.30
62436;BME280;48480;50.252;18.848;2023-02-16T08:56:28;99500.57;;;7.25;61.99
62436;BME280;48480;50.252;18.848;2023-02-16T08:59:01;99500.88;;;7.29;62.11
62436;BME280;48480;50.252;18.848;2023-02-16T09:01:34;99499.77;;;7.31;61.43
62436;BME280;48480;50.252;18.848;2023-02-16T09:04:01;99481.26;;;7.18;61.38
62436;BME280;48480;50.252;18.848;2023-02-16T09:06:36;99506.33;;;7.32;60.94
62436;BME280;48480;50.252;18.848;2023-02-16T09:09:03;99509.05;;;7.25;61.12
62436;BME280;48480;50.252;18.848;2023-02-16T09:14:18;99502.48;;;7.34;61.13
62436;BME280;48480;50.252;18.848;2023-02-16T09:16:46;99505.73;;;7.42;60.64
62436;BME280;48480;50.252;18.848;2023-02-16T09:19:16;99503.98;;;7.41;60.29
62436;BME280;48480;50.252;18.848;2023-02-16T09:24:31;99506.20;;;7.61;60.50
62436;BME280;48480;50.252;18.848;2023-02-16T09:29:48;99510.70;;;7.78;60.05
62436;BME280;48480;50.252;18.848;2023-02-16T09:32:19;99508.27;;;7.89;59.75
62436;BME280;48480;50.252;18.848;2023-02-16T09:37:37;99511.16;;;8.19;59.28
62436;BME280;48480;50.252;18.848;2023-02-16T09:40:05;99514.45;;;8.27;58.42
62436;BME280;48480;50.252;18.848;2023-02-16T09:45:12;99507.89;;;8.23;57.80
62436;BME280;48480;50.252;18.848;2023-02-16T09:47:48;99508.52;;;8.26;57.52
62436;BME280;48480;50.252;18.848;2023-02-16T09:50:21;99506.88;;;8.24;57.51
62436;BME280;48480;50.252;18.848;2023-02-16T09:55:35;99504.90;;;8.34;57.85
62436;BME280;48480;50.252;18.848;2023-02-16T09:58:18;99505.17;;;8.49;58.01
62436;BME280;48480;50.252;18.848;2023-02-16T10:01:02;99506.61;;;8.68;57.64
62436;BME280;48480;50.252;18.848;2023-02-16T10:06:23;99500.67;;;8.87;56.67
62436;BME280;48480;50.252;18.848;2023-02-16T10:09:10;99496.36;;;8.91;55.76
62436;BME280;48480;50.252;18.848;2023-02-16T10:14:43;99487.77;;;8.85;56.09
62436;BME280;48480;50.252;18.848;2023-02-16T10:20:04;99484.38;;;9.12;56.05
62436;BME280;48480;50.252;18.848;2023-02-16T10:25:55;99475.68;;;9.28;55.18
62436;BME280;48480;50.252;18.848;2023-02-16T10:29:06;99475.27;;;9.30;54.77
62436;BME280;48480;50.252;18.848;2023-02-16T10:31:41;99474.95;;;9.30;54.04
62436;BME280;48480;50.252;18.848;2023-02-16T10:43:04;99458.50;;;9.14;54.67
62436;BME280;48480;50.252;18.848;2023-02-16T10:47:42;99450.38;;;9.17;53.99
62436;BME280;48480;50.252;18.848;2023-02-16T10:53:00;99436.73;;;9.17;54.32
62436;BME280;48480;50.252;18.848;2023-02-16T10:55:35;99434.28;;;9.28;54.52
62436;BME280;48480;50.252;18.848;2023-02-16T10:58:18;99429.17;;;9.36;54.24
62436;BME280;48480;50.252;18.848;2023-02-16T11:03:53;99427.78;;;9.41;53.77
62436;BME280;48480;50.252;18.848;2023-02-16T11:12:12;99414.56;;;9.55;54.02
62436;BME280;48480;50.252;18.848;2023-02-16T11:15:01;99410.59;;;9.61;54.02
62436;BME280;48480;50.252;18.848;2023-02-16T11:17:30;99407.45;;;9.63;54.33
62436;BME280;48480;50.252;18.848;2023-02-16T11:20:00;99403.55;;;9.72;54.31
62436;BME280;48480;50.252;18.848;2023-02-16T11:22:34;99405.85;;;9.77;53.76
62436;BME280;48480;50.252;18.848;2023-02-16T11:28:05;99395.58;;;9.76;53.63
62436;BME280;48480;50.252;18.848;2023-02-16T11:33:21;99396.23;;;9.56;52.89
62436;BME280;48480;50.252;18.848;2023-02-16T11:35:53;99392.42;;;9.52;53.59
62436;BME280;48480;50.252;18.848;2023-02-16T11:55:42;99381.41;;;10.03;52.39
62436;BME280;48480;50.252;18.848;2023-02-16T11:58:24;99383.16;;;9.91;52.57
62436;BME280;48480;50.252;18.848;2023-02-16T12:04:06;99376.36;;;9.69;52.84
62436;BME280;48480;50.252;18.848;2023-02-16T12:09:12;99366.40;;;9.51;53.87
62436;BME280;48480;50.252;18.848;2023-02-16T12:12:15;99379.07;;;9.48;54.27
62436;BME280;48480;50.252;18.848;2023-02-16T12:19:56;99370.41;;;9.27;54.70
62436;BME280;48480;50.252;18.848;2023-02-16T12:22:47;99352.34;;;9.19;54.92
62436;BME280;48480;50.252;18.848;2023-02-16T12:31:31;99362.97;;;9.01;55.09
62436;BME280;48480;50.252;18.848;2023-02-16T12:37:12;99363.27;;;8.85;55.55
62436;BME280;48480;50.252;18.848;2023-02-16T12:40:45;99359.97;;;8.83;55.72
62436;BME280;48480;50.252;18.848;2023-02-16T12:45:39;99357.18;;;8.72;56.49
62436;BME280;48480;50.252;18.848;2023-02-16T12:48:45;99356.70;;;8.70;56.36
62436;BME280;48480;50.252;18.848;2023-02-16T12:51:16;99354.50;;;8.66;55.98
62436;BME280;48480;50.252;18.848;2023-02-16T12:56:42;99343.22;;;8.57;55.83
62436;BME280;48480;50.252;18.848;2023-02-16T12:59:21;99335.61;;;8.53;56.25
62436;BME280;48480;50.252;18.848;2023-02-16T13:01:50;99334.70;;;8.53;56.18
62436;BME280;48480;50.252;18.848;2023-02-16T13:04:39;99336.71;;;8.49;55.99
62436;BME280;48480;50.252;18.848;2023-02-16T13:07:21;99336.27;;;8.42;55.85
62436;BME280;48480;50.252;18.848;2023-02-16T13:10:02;99338.06;;;8.35;55.93
62436;BME280;48480;50.252;18.848;2023-02-16T13:18:18;99329.08;;;8.29;56.05
62436;BME280;48480;50.252;18.848;2023-02-16T13:20:55;99328.39;;;8.23;55.72
62436;BME280;48480;50.252;18.848;2023-02-16T13:23:29;99319.30;;;8.14;55.70
62436;BME280;48480;50.252;18.848;2023-02-16T13:44:40;99306.21;;;7.55;57.13
62436;BME280;48480;50.252;18.848;2023-02-16T13:50:02;99296.48;;;7.36;57.49
62436;BME280;48480;50.252;18.848;2023-02-16T13:58:29;99298.74;;;7.15;58.32
62436;BME280;48480;50.252;18.848;2023-02-16T14:00:56;99300.40;;;7.14;58.75
62436;BME280;48480;50.252;18.848;2023-02-16T14:05:52;99303.66;;;7.10;58.72
62436;BME280;48480;50.252;18.848;2023-02-16T14:08:28;99298.34;;;7.04;58.63
62436;BME280;48480;50.252;18.848;2023-02-16T14:10:58;99301.20;;;6.95;58.66
62436;BME280;48480;50.252;18.848;2023-02-16T14:18:55;99287.41;;;6.85;59.33
62436;BME280;48480;50.252;18.848;2023-02-16T14:23:59;99288.52;;;6.80;59.57
62436;BME280;48480;50.252;18.848;2023-02-16T14:26:25;99289.54;;;6.77;59.93
62436;BME280;48480;50.252;18.848;2023-02-16T14:29:01;99290.09;;;6.76;60.01
62436;BME280;48480;50.252;18.848;2023-02-16T14:31:46;99290.58;;;6.73;59.99
62436;BME280;48480;50.252;18.848;2023-02-16T14:34:26;99295.33;;;6.70;60.10
62436;BME280;48480;50.252;18.848;2023-02-16T14:39:47;99303.55;;;6.65;60.29
62436;BME280;48480;50.252;18.848;2023-02-16T14:42:30;99303.33;;;6.57;60.23
62436;BME280;48480;50.252;18.848;2023-02-16T14:47:52;99298.17;;;6.44;60.90
62436;BME280;48480;50.252;18.848;2023-02-16T14:56:46;99308.30;;;6.31;61.26
62436;BME280;48480;50.252;18.848;2023-02-16T15:01:54;99298.55;;;6.27;61.48
62436;BME280;48480;50.252;18.848;2023-02-16T15:04:32;99294.55;;;6.23;61.65
62436;BME280;48480;50.252;18.848;2023-02-16T15:07:02;99295.55;;;6.23;61.88
62436;BME280;48480;50.252;18.848;2023-02-16T15:09:30;99292.89;;;6.21;61.92
62436;BME280;48480;50.252;18.848;2023-02-16T15:12:07;99289.09;;;6.13;62.10
62436;BME280;48480;50.252;18.848;2023-02-16T15:14:52;99292.30;;;6.11;62.29
62436;BME280;48480;50.252;18.848;2023-02-16T15:20:01;99302.17;;;5.95;62.82
62436;BME280;48480;50.252;18.848;2023-02-16T15:22:28;99306.98;;;5.90;62.97
62436;BME280;48480;50.252;18.848;2023-02-16T15:24:57;99304.20;;;5.84;63.20
62436;BME280;48480;50.252;18.848;2023-02-16T15:27:24;99306.11;;;5.81;63.21
62436;BME280;48480;50.252;18.848;2023-02-16T15:30:07;99303.94;;;5.79;63.38
62436;BME280;48480;50.252;18.848;2023-02-16T15:32:34;99297.48;;;5.75;63.53
62436;BME280;48480;50.252;18.848;2023-02-16T15:35:21;99300.73;;;5.76;63.55
62436;BME280;48480;50.252;18.848;2023-02-16T15:37:58;99298.96;;;5.71;63.47
62436;BME280;48480;50.252;18.848;2023-02-16T15:40:27;99299.79;;;5.64;63.55
62436;BME280;48480;50.252;18.848;2023-02-16T15:43:25;99297.12;;;5.59;63.63
62436;BME280;48480;50.252;18.848;2023-02-16T15:45:56;99289.02;;;5.55;63.78
62436;BME280;48480;50.252;18.848;2023-02-16T15:48:26;99289.55;;;5.53;63.93
62436;BME280;48480;50.252;18.848;2023-02-16T15:51:00;99290.17;;;5.51;64.15
62436;BME280;48480;50.252;18.848;2023-02-16T15:56:44;99286.92;;;5.36;64.51
62436;BME280;48480;50.252;18.848;2023-02-16T15:59:25;99283.20;;;5.27;64.70
62436;BME280;48480;50.252;18.848;2023-02-16T16:02:09;99280.67;;;5.19;64.89
62436;BME280;48480;50.252;18.848;2023-02-16T16:04:59;99277.55;;;5.10;65.12
62436;BME280;48480;50.252;18.848;2023-02-16T16:07:31;99273.95;;;5.01;65.31
62436;BME280;48480;50.252;18.848;2023-02-16T16:10:06;99269.54;;;4.91;65.37
62436;BME280;48480;50.252;18.848;2023-02-16T16:12:36;99281.43;;;4.89;65.61
62436;BME280;48480;50.252;18.848;2023-02-16T16:15:02;99278.45;;;4.79;65.88
62436;BME280;48480;50.252;18.848;2023-02-16T16:17:31;99285.59;;;4.71;66.13
62436;BME280;48480;50.252;18.848;2023-02-16T16:20:23;99276.89;;;4.59;66.30
62436;BME280;48480;50.252;18.848;2023-02-16T16:23:21;99283.02;;;4.55;66.49
62436;BME280;48480;50.252;18.848;2023-02-16T16:25:49;99285.40;;;4.45;66.88
62436;BME280;48480;50.252;18.848;2023-02-16T16:31:30;99283.05;;;4.30;67.24
62436;BME280;48480;50.252;18.848;2023-02-16T16:34:00;99281.34;;;4.22;67.43
62436;BME280;48480;50.252;18.848;2023-02-16T16:39:19;99280.88;;;4.12;67.84
62436;BME280;48480;50.252;18.848;2023-02-16T16:42:19;99284.42;;;4.08;67.88
62436;BME280;48480;50.252;18.848;2023-02-16T16:49:57;99285.31;;;4.03;68.21
62436;BME280;48480;50.252;18.848;2023-02-16T16:52:43;99285.12;;;4.04;68.20
62436;BME280;48480;50.252;18.848;2023-02-16T16:55:28;99281.73;;;4.01;68.27
62436;BME280;48480;50.252;18.848;2023-02-16T16:58:04;99281.57;;;3.99;68.34
62436;BME280;48480;50.252;18.848;2023-02-16T17:00:33;99278.16;;;3.94;68.46
62436;BME280;48480;50.252;18.848;2023-02-16T17:03:01;99282.95;;;3.93;68.56
62436;BME280;48480;50.252;18.848;2023-02-16T17:05:27;99286.80;;;3.91;68.62
62436;BME280;48480;50.252;18.848;2023-02-16T17:07:53;99284.88;;;3.90;68.66
62436;BME280;48480;50.252;18.848;2023-02-16T17:10:20;99286.90;;;3.91;68.54